createdAt,value
2022-08-17T00:02:26.424Z,11.63
2022-08-17T00:05:32.616Z,11.63
2022-08-17T00:08:49.747Z,11.64
2022-08-17T00:12:41.924Z,11.63
2022-08-17T00:15:15.161Z,11.62
2022-08-17T00:19:01.034Z,11.59
2022-08-17T00:22:32.499Z,11.62
2022-08-17T00:25:07.362Z,11.68
2022-08-17T00:28:09.587Z,11.67
2022-08-17T00:31:11.649Z,11.63
2022-08-17T00:34:13.427Z,11.60
2022-08-17T00:37:15.340Z,11.59
2022-08-17T00:40:18.211Z,11.59
2022-08-17T00:43:31.029Z,11.56
2022-08-17T00:46:39.313Z,11.62
2022-08-17T00:49:41.122Z,11.65
2022-08-17T00:52:48.595Z,11.65
2022-08-17T00:55:50.809Z,11.64
2022-08-17T00:58:54.352Z,11.58
2022-08-17T01:01:56.069Z,11.60
2022-08-17T01:04:57.816Z,11.58
2022-08-17T01:08:01.038Z,11.53
2022-08-17T01:11:03.166Z,11.53
2022-08-17T01:14:04.946Z,11.50
2022-08-17T01:17:07.473Z,11.55
2022-08-17T01:20:09.202Z,11.59
2022-08-17T01:23:10.976Z,11.58
2022-08-17T01:26:18.556Z,11.55
2022-08-17T01:29:21.774Z,11.54
2022-08-17T01:32:23.623Z,11.57
2022-08-17T01:35:25.536Z,11.58
2022-08-17T01:38:31.663Z,11.58
2022-08-17T01:41:34.258Z,11.59
2022-08-17T01:44:36.063Z,11.57
2022-08-17T01:47:41.835Z,11.58
2022-08-17T01:50:44.626Z,11.58
2022-08-17T01:53:51.903Z,11.55
2022-08-17T01:56:53.741Z,11.51
2022-08-17T01:59:55.535Z,11.53
2022-08-17T02:02:57.337Z,11.52
2022-08-17T02:05:59.037Z,11.48
2022-08-17T02:09:02.498Z,11.47
2022-08-17T02:12:37.991Z,11.41
2022-08-17T02:15:27.463Z,11.41
2022-08-17T02:18:30.216Z,11.35
2022-08-17T02:21:32.421Z,11.31
2022-08-17T02:24:58.812Z,11.28
2022-08-17T02:27:58.474Z,11.20
2022-08-17T02:31:07.895Z,11.19
2022-08-17T02:34:09.771Z,11.18
2022-08-17T02:37:11.796Z,11.15
2022-08-17T02:40:13.520Z,11.13
2022-08-17T02:43:15.700Z,11.11
2022-08-17T02:46:17.366Z,11.07
2022-08-17T02:49:19.139Z,11.05
2022-08-17T02:52:43.302Z,11.03
2022-08-17T02:55:44.655Z,10.91
2022-08-17T02:58:46.451Z,10.88
2022-08-17T03:01:48.297Z,10.85
2022-08-17T03:04:50.099Z,10.81
2022-08-17T03:07:52.405Z,10.83
2022-08-17T03:10:54.099Z,10.88
2022-08-17T03:13:55.973Z,10.82
2022-08-17T03:16:58.050Z,10.84
2022-08-17T03:20:00.045Z,10.82
2022-08-17T03:23:02.852Z,10.81
2022-08-17T03:26:05.127Z,10.78
2022-08-17T03:29:18.890Z,10.80
2022-08-17T03:32:20.846Z,10.82
2022-08-17T03:35:25.710Z,10.85
2022-08-17T03:38:27.839Z,10.84
2022-08-17T03:41:29.619Z,10.78
2022-08-17T03:44:31.395Z,10.79
2022-08-17T03:47:51.598Z,10.84
2022-08-17T03:51:14.768Z,10.81
2022-08-17T03:54:35.273Z,10.81
2022-08-17T03:57:37.134Z,10.81
2022-08-17T04:00:40.480Z,10.81
2022-08-17T04:03:42.220Z,10.78
2022-08-17T04:06:44.503Z,10.80
2022-08-17T04:09:46.603Z,10.81
2022-08-17T04:12:51.446Z,10.82
2022-08-17T04:15:53.890Z,10.75
2022-08-17T04:18:55.703Z,10.76
2022-08-17T04:22:00.206Z,10.76
2022-08-17T04:25:09.850Z,10.72
2022-08-17T04:28:15.674Z,10.68
2022-08-17T04:31:18.171Z,10.66
2022-08-17T04:34:20.469Z,10.63
2022-08-17T04:37:22.150Z,10.65
2022-08-17T04:40:44.363Z,10.72
2022-08-17T04:43:47.973Z,10.74
2022-08-17T04:46:49.667Z,10.79
2022-08-17T04:49:51.375Z,10.79
2022-08-17T04:52:53.059Z,10.78
2022-08-17T04:55:57.235Z,10.69
2022-08-17T04:59:05.836Z,10.72
2022-08-17T05:02:07.530Z,10.68
2022-08-17T05:05:09.381Z,10.69
2022-08-17T05:08:11.159Z,10.72
2022-08-17T05:11:13.611Z,10.72
2022-08-17T05:14:15.502Z,10.74
2022-08-17T05:17:17.168Z,10.77
2022-08-17T05:20:20.985Z,10.72
2022-08-17T05:23:24.227Z,10.71
2022-08-17T05:26:27.718Z,10.67
2022-08-17T05:29:35.498Z,10.61
2022-08-17T05:32:40.409Z,10.58
2022-08-17T05:35:49.177Z,10.61
2022-08-17T05:38:50.851Z,10.67
2022-08-17T05:41:52.659Z,10.67
2022-08-17T05:44:57.856Z,10.66
2022-08-17T05:47:59.547Z,10.64
2022-08-17T05:51:25.437Z,10.71
2022-08-17T05:54:39.653Z,10.74
2022-08-17T05:57:53.524Z,10.70
2022-08-17T06:01:21.082Z,10.78
2022-08-17T06:04:31.925Z,10.70
2022-08-17T06:08:06.487Z,10.69
2022-08-17T06:11:22.884Z,10.65
2022-08-17T06:14:47.522Z,10.71
2022-08-17T06:17:59.245Z,10.75
2022-08-17T06:21:03.863Z,10.78
2022-08-17T06:24:23.922Z,10.78
2022-08-17T06:27:32.810Z,10.84
2022-08-17T06:30:59.366Z,10.72
2022-08-17T06:34:04.601Z,10.65
2022-08-17T06:37:34.526Z,10.57
2022-08-17T06:40:49.371Z,10.49
2022-08-17T06:44:00.798Z,10.47
2022-08-17T06:47:12.555Z,10.42
2022-08-17T06:50:27.417Z,10.37
2022-08-17T06:53:47.778Z,10.38
2022-08-17T06:56:59.581Z,10.40
2022-08-17T07:00:24.638Z,10.36
2022-08-17T07:03:54.603Z,10.39
2022-08-17T07:07:23.703Z,10.37
2022-08-17T07:10:26.522Z,10.43
2022-08-17T07:13:38.740Z,10.51
2022-08-17T07:16:46.428Z,10.45
2022-08-17T07:19:49.823Z,10.43
2022-08-17T07:23:15.774Z,10.51
2022-08-17T07:26:17.527Z,10.51
2022-08-17T07:29:19.946Z,10.49
2022-08-17T07:32:26.393Z,10.43
2022-08-17T07:35:44.016Z,10.41
2022-08-17T07:38:57.642Z,10.40
2022-08-17T07:42:04.229Z,10.39
2022-08-17T07:45:27.951Z,10.36
2022-08-17T07:48:29.810Z,10.37
2022-08-17T07:51:36.529Z,10.36
2022-08-17T07:54:41.339Z,10.39
2022-08-17T07:57:43.078Z,10.55
2022-08-17T08:00:45.760Z,10.69
2022-08-17T08:03:49.383Z,11.06
2022-08-17T08:06:57.751Z,11.38
2022-08-17T08:10:00.911Z,11.63
2022-08-17T08:13:12.280Z,11.89
2022-08-17T08:16:29.275Z,12.05
2022-08-17T08:19:31.926Z,12.22
2022-08-17T08:22:46.084Z,12.49
2022-08-17T08:25:53.588Z,12.62
2022-08-17T08:29:28.376Z,12.95
2022-08-17T08:32:48.599Z,13.25
2022-08-17T08:36:02.832Z,13.03
2022-08-17T08:39:13.669Z,13.20
2022-08-17T08:42:21.512Z,13.68
2022-08-17T08:45:31.928Z,14.01
2022-08-17T08:49:12.026Z,13.66
2022-08-17T08:52:53.400Z,13.76
2022-08-17T08:56:00.149Z,13.91
2022-08-17T08:59:23.673Z,14.17
2022-08-17T09:03:06.244Z,14.36
2022-08-17T09:06:32.175Z,14.47
2022-08-17T09:09:50.259Z,14.54
2022-08-17T09:12:55.455Z,15.08
2022-08-17T09:16:06.196Z,15.21
2022-08-17T09:19:22.606Z,15.36
2022-08-17T09:22:31.618Z,15.75
2022-08-17T09:25:49.852Z,15.71
2022-08-17T09:28:53.876Z,15.42
2022-08-17T09:31:58.474Z,15.62
2022-08-17T09:35:36.678Z,15.89
2022-08-17T09:38:48.035Z,15.92
2022-08-17T09:42:06.788Z,16.72
2022-08-17T09:45:23.630Z,17.00
2022-08-17T09:48:30.299Z,16.89
2022-08-17T09:51:36.851Z,16.12
2022-08-17T09:54:40.879Z,16.31
2022-08-17T09:57:59.971Z,16.52
2022-08-17T10:01:29.452Z,15.88
2022-08-17T10:04:43.314Z,15.66
2022-08-17T10:07:59.927Z,15.74
2022-08-17T10:11:15.479Z,16.14
2022-08-17T10:14:43.796Z,16.60
2022-08-17T10:17:59.811Z,16.86
2022-08-17T10:21:31.172Z,16.87
2022-08-17T10:25:21.386Z,16.98
2022-08-17T10:28:28.922Z,16.91
2022-08-17T10:31:35.882Z,16.96
2022-08-17T10:34:44.293Z,17.10
2022-08-17T10:37:59.340Z,17.10
2022-08-17T10:41:28.864Z,16.94
2022-08-17T10:44:47.477Z,16.99
2022-08-17T10:48:04.305Z,17.32
2022-08-17T10:51:12.888Z,17.51
2022-08-17T10:54:46.790Z,17.72
2022-08-17T10:57:50.505Z,17.71
2022-08-17T11:00:53.378Z,17.56
2022-08-17T11:03:57.312Z,17.29
2022-08-17T11:07:02.264Z,17.39
2022-08-17T11:10:33.584Z,17.82
2022-08-17T11:14:04.684Z,17.76
2022-08-17T11:17:18.937Z,18.05
2022-08-17T11:20:24.006Z,18.14
2022-08-17T11:23:48.416Z,17.86
2022-08-17T11:27:14.326Z,17.78
2022-08-17T11:30:51.835Z,17.88
2022-08-17T11:34:00.856Z,18.18
2022-08-17T11:37:24.460Z,18.55
2022-08-17T11:40:46.494Z,18.00
2022-08-17T11:44:20.844Z,18.80
2022-08-17T11:48:23.628Z,18.83
2022-08-17T11:51:36.780Z,19.42
2022-08-17T11:55:12.398Z,19.76
2022-08-17T11:58:30.186Z,19.46
2022-08-17T12:01:51.679Z,19.89
2022-08-17T12:05:12.498Z,20.36
2022-08-17T12:08:21.609Z,20.13
2022-08-17T12:12:11.202Z,20.15
2022-08-17T12:15:11.543Z,20.38
2022-08-17T12:18:42.357Z,20.74
2022-08-17T12:21:53.837Z,20.59
2022-08-17T12:25:19.303Z,20.75
2022-08-17T12:28:30.027Z,21.07
2022-08-17T12:31:36.338Z,21.29
2022-08-17T12:34:43.328Z,21.56
2022-08-17T12:37:47.530Z,21.58
2022-08-17T12:40:54.724Z,21.28
2022-08-17T12:44:23.302Z,21.38
2022-08-17T12:47:25.926Z,20.90
2022-08-17T12:50:32.231Z,21.46
2022-08-17T12:53:36.707Z,21.68
2022-08-17T12:56:38.453Z,21.67
2022-08-17T12:59:41.493Z,21.74
2022-08-17T13:03:03.435Z,22.19
2022-08-17T13:06:09.550Z,21.53
2022-08-17T13:09:35.715Z,21.82
2022-08-17T13:12:42.195Z,22.11
2022-08-17T13:15:59.471Z,22.06
2022-08-17T13:19:10.602Z,22.04
2022-08-17T13:22:13.993Z,22.23
2022-08-17T13:25:16.744Z,22.30
2022-08-17T13:28:30.773Z,22.34
2022-08-17T13:31:52.464Z,22.55
2022-08-17T13:35:15.208Z,22.96
2022-08-17T13:38:45.894Z,23.14
2022-08-17T13:41:49.180Z,23.29
2022-08-17T13:44:51.022Z,23.46
2022-08-17T13:48:10.921Z,23.72
2022-08-17T13:51:23.184Z,24.05
2022-08-17T13:54:27.430Z,23.34
2022-08-17T13:57:29.196Z,23.33
2022-08-17T14:00:36.448Z,23.61
2022-08-17T14:03:38.232Z,23.38
2022-08-17T14:06:52.848Z,23.35
2022-08-17T14:10:06.193Z,23.98
2022-08-17T14:13:08.315Z,23.87
2022-08-17T14:16:10.020Z,24.22
2022-08-17T14:19:13.244Z,23.91
2022-08-17T14:22:19.714Z,24.33
2022-08-17T14:25:27.530Z,24.21
2022-08-17T14:28:29.251Z,23.99
2022-08-17T14:31:35.363Z,24.16
2022-08-17T14:34:39.052Z,24.62
2022-08-17T14:37:40.751Z,24.31
2022-08-17T14:40:43.042Z,24.33
2022-08-17T14:43:46.299Z,23.85
2022-08-17T14:46:50.579Z,22.86
2022-08-17T14:49:52.982Z,22.90
2022-08-17T14:52:57.994Z,22.27
2022-08-17T14:56:01.782Z,23.04
2022-08-17T14:59:03.618Z,23.87
2022-08-17T15:02:05.519Z,23.99
2022-08-17T15:05:07.826Z,24.41
2022-08-17T15:08:09.578Z,24.00
2022-08-17T15:11:14.273Z,24.13
2022-08-17T15:14:16.442Z,23.87
2022-08-17T15:17:18.197Z,24.56
2022-08-17T15:20:23.892Z,24.08
2022-08-17T15:23:27.014Z,24.28
2022-08-17T15:26:28.767Z,24.47
2022-08-17T15:29:30.535Z,24.24
2022-08-17T15:32:34.935Z,24.36
2022-08-17T15:35:37.429Z,24.44
2022-08-17T15:38:41.970Z,24.39
2022-08-17T15:41:47.331Z,24.03
2022-08-17T15:45:06.091Z,24.03
2022-08-17T15:48:08.949Z,24.49
2022-08-17T15:51:15.039Z,24.94
2022-08-17T15:54:19.310Z,24.96
2022-08-17T15:57:25.704Z,25.13
2022-08-17T16:00:29.298Z,24.89
2022-08-17T16:04:01.182Z,25.09
2022-08-17T16:06:53.703Z,25.51
2022-08-17T16:09:55.666Z,25.53
2022-08-17T16:12:58.704Z,25.54
2022-08-17T16:16:00.383Z,25.58
2022-08-17T16:19:02.073Z,25.38
2022-08-17T16:22:05.938Z,25.52
2022-08-17T16:25:11.305Z,26.13
2022-08-17T16:28:14.782Z,26.11
2022-08-17T16:31:16.668Z,26.25
2022-08-17T16:34:19.102Z,25.70
2022-08-17T16:37:20.865Z,25.24
2022-08-17T16:40:26.020Z,25.20
2022-08-17T16:43:29.283Z,25.54
2022-08-17T16:46:31.720Z,25.89
2022-08-17T16:49:37.396Z,25.55
2022-08-17T16:52:40.554Z,25.40
2022-08-17T16:55:42.766Z,25.52
2022-08-17T16:58:44.922Z,25.54
2022-08-17T17:01:47.866Z,25.53
2022-08-17T17:05:19.402Z,25.31
2022-08-17T17:08:26.826Z,25.08
2022-08-17T17:11:50.925Z,25.47
2022-08-17T17:14:53.417Z,25.38
2022-08-17T17:17:59.886Z,25.12
2022-08-17T17:21:13.461Z,23.81
2022-08-17T17:24:30.354Z,23.71
2022-08-17T17:27:47.580Z,23.35
2022-08-17T17:31:08.293Z,22.76
2022-08-17T17:34:13.758Z,22.28
2022-08-17T17:37:26.396Z,22.36
2022-08-17T17:40:40.920Z,21.62
2022-08-17T17:43:43.018Z,21.02
2022-08-17T17:46:49.479Z,20.58
2022-08-17T17:49:51.345Z,20.35
2022-08-17T17:52:59.545Z,20.57
2022-08-17T17:56:18.827Z,21.01
2022-08-17T17:59:49.758Z,21.14
2022-08-17T18:03:15.723Z,20.81
2022-08-17T18:06:32.175Z,20.34
2022-08-17T18:09:53.796Z,19.44
2022-08-17T18:13:08.702Z,18.66
2022-08-17T18:16:12.856Z,18.20
2022-08-17T18:19:19.947Z,17.70
2022-08-17T18:22:22.467Z,17.09
2022-08-17T18:25:44.515Z,16.76
2022-08-17T18:28:46.113Z,16.90
2022-08-17T18:31:47.988Z,17.13
2022-08-17T18:34:51.516Z,16.86
2022-08-17T18:38:42.029Z,16.98
2022-08-17T18:41:47.166Z,16.59
2022-08-17T18:44:54.311Z,16.41
2022-08-17T18:47:57.870Z,16.02
2022-08-17T18:51:41.007Z,15.85
2022-08-17T18:55:08.545Z,15.78
2022-08-17T18:58:16.620Z,15.48
2022-08-17T19:01:20.947Z,15.30
2022-08-17T19:04:37.054Z,15.10
2022-08-17T19:07:40.137Z,14.91
2022-08-17T19:10:49.475Z,14.81
2022-08-17T19:13:58.563Z,14.66
2022-08-17T19:17:12.296Z,14.43
2022-08-17T19:20:26.904Z,14.28
2022-08-17T19:23:37.554Z,14.13
2022-08-17T19:26:50.598Z,14.01
2022-08-17T19:30:01.632Z,13.89
2022-08-17T19:33:05.874Z,13.80
2022-08-17T19:36:22.008Z,13.69
2022-08-17T19:39:38.713Z,13.49
2022-08-17T19:42:55.807Z,13.48
2022-08-17T19:46:12.309Z,13.41
2022-08-17T19:49:33.181Z,13.34
2022-08-17T19:52:46.525Z,13.32
2022-08-17T19:56:08.596Z,13.26
2022-08-17T19:59:21.414Z,13.18
2022-08-17T20:02:47.488Z,13.04
2022-08-17T20:06:13.750Z,13.04
2022-08-17T20:09:20.712Z,13.57
2022-08-17T20:12:26.886Z,13.56
2022-08-17T20:15:31.425Z,12.76
2022-08-17T20:18:54.822Z,12.81
2022-08-17T20:22:01.067Z,12.81
2022-08-17T20:25:30.360Z,12.80
2022-08-17T20:28:35.576Z,12.78
2022-08-17T20:31:55.686Z,12.63
2022-08-17T20:35:05.415Z,12.54
2022-08-17T20:38:13.246Z,12.43
2022-08-17T20:41:22.773Z,12.39
2022-08-17T20:44:36.899Z,12.33
2022-08-17T20:48:01.164Z,12.31
2022-08-17T20:51:18.056Z,12.34
2022-08-17T20:54:19.744Z,12.27
2022-08-17T20:57:36.715Z,12.21
2022-08-17T21:00:40.433Z,12.13
2022-08-17T21:03:51.261Z,12.11
2022-08-17T21:07:41.055Z,12.14
2022-08-17T21:10:47.079Z,11.98
2022-08-17T21:14:31.115Z,11.88
2022-08-17T21:18:12.058Z,11.79
2022-08-17T21:21:25.986Z,11.60
2022-08-17T21:24:35.815Z,11.62
2022-08-17T21:27:46.083Z,11.61
2022-08-17T21:30:54.104Z,11.60
2022-08-17T21:34:15.425Z,11.74
2022-08-17T21:37:19.971Z,11.79
2022-08-17T21:40:27.585Z,11.85
2022-08-17T21:43:32.761Z,11.86
2022-08-17T21:46:38.555Z,11.90
2022-08-17T21:49:41.642Z,11.92
2022-08-17T21:52:43.678Z,11.92
2022-08-17T21:55:48.716Z,11.92
2022-08-17T21:59:08.153Z,11.91
2022-08-17T22:02:20.353Z,11.85
2022-08-17T22:05:36.243Z,11.79
2022-08-17T22:08:37.908Z,11.67
2022-08-17T22:11:56.725Z,11.54
2022-08-17T22:15:00.891Z,11.42
2022-08-17T22:18:05.880Z,11.38
2022-08-17T22:21:10.763Z,11.36
2022-08-17T22:24:21.731Z,11.35
2022-08-17T22:27:45.487Z,11.41
2022-08-17T22:31:14.963Z,11.32
2022-08-17T22:34:17.379Z,11.22
2022-08-17T22:37:20.874Z,11.32
2022-08-17T22:40:34.469Z,11.47
2022-08-17T22:43:38.253Z,11.60
2022-08-17T22:47:11.124Z,11.67
2022-08-17T22:50:25.486Z,11.79
2022-08-17T22:54:02.456Z,11.77
2022-08-17T22:57:24.233Z,11.84
2022-08-17T23:00:42.572Z,11.93
2022-08-17T23:03:58.904Z,11.92
2022-08-17T23:07:00.584Z,11.91
2022-08-17T23:10:06.380Z,11.83
2022-08-17T23:13:11.903Z,11.92
2022-08-17T23:16:14.920Z,12.04
2022-08-17T23:19:20.952Z,12.11
2022-08-17T23:22:23.019Z,12.12
2022-08-17T23:25:28.055Z,12.00
2022-08-17T23:28:29.804Z,12.08
2022-08-17T23:31:38.563Z,12.17
2022-08-17T23:34:41.293Z,12.13
2022-08-17T23:37:42.950Z,12.01
2022-08-17T23:40:44.695Z,11.89
2022-08-17T23:43:48.854Z,11.85
2022-08-17T23:46:51.878Z,11.86
2022-08-17T23:49:54.102Z,11.85
2022-08-17T23:52:56.648Z,11.77
2022-08-17T23:56:09.243Z,11.76
2022-08-17T23:59:13.624Z,11.83
